createdAt,value
2022-12-23T00:01:27.281Z,100799.70
2022-12-23T00:03:57.745Z,100806.14
2022-12-23T00:06:24.638Z,100813.23
2022-12-23T00:08:58.759Z,100813.89
2022-12-23T00:11:27.492Z,100819.44
2022-12-23T00:14:20.063Z,100816.02
2022-12-23T00:16:48.889Z,100802.54
2022-12-23T00:19:15.655Z,100793.41
2022-12-23T00:21:42.353Z,100785.76
2022-12-23T00:24:08.987Z,100781.55
2022-12-23T00:26:35.779Z,100788.93
2022-12-23T00:29:02.576Z,100787.88
2022-12-23T00:31:29.310Z,100782.16
2022-12-23T00:33:56.035Z,100779.02
2022-12-23T00:36:28.768Z,100796.83
2022-12-23T00:39:16.182Z,100797.30
2022-12-23T00:42:01.916Z,100796.11
2022-12-23T00:44:28.882Z,100805.16
2022-12-23T00:46:55.698Z,100805.08
2022-12-23T00:49:40.953Z,100807.63
2022-12-23T00:52:11.060Z,100816.53
2022-12-23T00:54:37.964Z,100825.30
2022-12-23T00:57:05.295Z,100822.21
2022-12-23T00:59:31.922Z,100822.40
2022-12-23T01:02:17.416Z,100817.16
2022-12-23T01:05:03.218Z,100815.12
2022-12-23T01:07:30.016Z,100823.61
2022-12-23T01:09:56.667Z,100823.70
2022-12-23T01:12:23.314Z,100822.44
2022-12-23T01:14:50.020Z,100818.16
2022-12-23T01:17:16.964Z,100828.11
2022-12-23T01:19:43.717Z,100831.21
2022-12-23T01:22:10.480Z,100831.59
2022-12-23T01:24:37.209Z,100834.55
2022-12-23T01:27:03.955Z,100819.52
2022-12-23T01:29:30.853Z,100813.20
2022-12-23T01:31:57.637Z,100812.44
2022-12-23T01:34:24.529Z,100829.48
2022-12-23T01:36:51.279Z,100855.36
2022-12-23T01:39:18.083Z,100849.44
2022-12-23T01:42:03.425Z,100826.02
2022-12-23T01:45:06.833Z,100825.63
2022-12-23T01:47:40.607Z,100826.64
2022-12-23T01:50:22.335Z,100794.14
2022-12-23T01:53:09.096Z,100792.62
2022-12-23T01:55:43.291Z,100799.85
2022-12-23T01:58:31.970Z,100801.45
2022-12-23T02:01:18.046Z,100794.94
2022-12-23T02:03:48.427Z,100800.66
2022-12-23T02:06:45.026Z,100799.69
2022-12-23T02:09:33.301Z,100804.22
2022-12-23T02:12:39.258Z,100805.27
2022-12-23T02:15:43.293Z,100813.29
2022-12-23T02:18:18.802Z,100803.58
2022-12-23T02:21:01.777Z,100793.17
2022-12-23T02:24:06.241Z,100793.13
2022-12-23T02:26:54.586Z,100795.02
2022-12-23T02:29:55.349Z,100795.84
2022-12-23T02:32:44.177Z,100793.91
2022-12-23T02:35:20.454Z,100789.02
2022-12-23T02:38:05.362Z,100782.80
2022-12-23T02:41:09.233Z,100775.80
2022-12-23T02:43:50.423Z,100775.22
2022-12-23T02:46:33.245Z,100777.50
2022-12-23T02:49:25.719Z,100771.85
2022-12-23T02:51:56.630Z,100779.04
2022-12-23T02:54:29.901Z,100774.41
2022-12-23T02:56:59.003Z,100769.27
2022-12-23T02:59:30.564Z,100762.02
2022-12-23T03:01:57.618Z,100760.46
2022-12-23T03:04:24.628Z,100762.46
2022-12-23T03:06:56.101Z,100764.77
2022-12-23T03:09:40.427Z,100764.48
2022-12-23T03:12:33.414Z,100762.64
2022-12-23T03:15:09.359Z,100763.30
2022-12-23T03:17:54.798Z,100768.55
2022-12-23T03:20:28.860Z,100765.63
2022-12-23T03:23:22.002Z,100767.79
2022-12-23T03:26:10.947Z,100768.85
2022-12-23T03:29:03.033Z,100769.00
2022-12-23T03:31:32.166Z,100765.73
2022-12-23T03:34:03.839Z,100772.58
2022-12-23T03:36:40.111Z,100773.61
2022-12-23T03:39:13.650Z,100773.66
2022-12-23T03:41:47.514Z,100767.50
2022-12-23T03:44:21.437Z,100767.92
2022-12-23T03:47:03.375Z,100772.10
2022-12-23T03:49:37.951Z,100768.81
2022-12-23T03:52:17.237Z,100758.66
2022-12-23T03:54:54.494Z,100748.52
2022-12-23T03:57:26.171Z,100743.41
2022-12-23T03:59:54.274Z,100748.45
2022-12-23T04:02:32.896Z,100751.40
2022-12-23T04:05:17.505Z,100758.03
2022-12-23T04:08:16.578Z,100764.29
2022-12-23T04:10:43.605Z,100762.40
2022-12-23T04:13:10.430Z,100756.79
2022-12-23T04:15:41.691Z,100754.16
2022-12-23T04:18:10.124Z,100744.28
2022-12-23T04:20:37.475Z,100741.23
2022-12-23T04:23:04.401Z,100741.13
2022-12-23T04:25:31.344Z,100730.31
2022-12-23T04:27:58.094Z,100723.16
2022-12-23T04:30:29.648Z,100731.09
2022-12-23T04:33:01.032Z,100748.99
2022-12-23T04:35:28.234Z,100750.02
2022-12-23T04:37:57.437Z,100745.85
2022-12-23T04:40:24.234Z,100743.19
2022-12-23T04:42:51.080Z,100749.23
2022-12-23T04:45:17.939Z,100752.73
2022-12-23T04:47:44.796Z,100755.46
2022-12-23T04:50:15.165Z,100752.79
2022-12-23T04:52:43.616Z,100745.98
2022-12-23T04:55:11.174Z,100747.29
2022-12-23T04:57:37.937Z,100756.95
2022-12-23T05:00:05.734Z,100757.73
2022-12-23T05:02:32.591Z,100751.35
2022-12-23T05:04:59.301Z,100753.66
2022-12-23T05:07:26.123Z,100758.09
2022-12-23T05:09:53.044Z,100751.42
2022-12-23T05:12:19.881Z,100746.48
2022-12-23T05:14:47.352Z,100745.04
2022-12-23T05:17:14.173Z,100744.54
2022-12-23T05:19:41.056Z,100748.52
2022-12-23T05:22:07.773Z,100748.52
2022-12-23T05:24:34.469Z,100744.45
2022-12-23T05:27:01.227Z,100749.05
2022-12-23T05:29:28.494Z,100748.41
2022-12-23T05:31:55.303Z,100755.66
2022-12-23T05:34:22.228Z,100761.95
2022-12-23T05:36:49.175Z,100769.48
2022-12-23T05:39:15.947Z,100763.58
2022-12-23T05:41:43.097Z,100753.73
2022-12-23T05:44:10.017Z,100747.73
2022-12-23T05:46:36.909Z,100742.15
2022-12-23T05:49:03.929Z,100738.38
2022-12-23T05:51:30.786Z,100748.73
2022-12-23T05:53:57.570Z,100756.03
2022-12-23T05:56:24.336Z,100754.48
2022-12-23T05:58:51.185Z,100758.95
2022-12-23T06:01:18.713Z,100755.87
2022-12-23T06:03:45.543Z,100762.05
2022-12-23T06:06:12.833Z,100764.48
2022-12-23T06:08:39.498Z,100770.93
2022-12-23T06:11:06.699Z,100771.61
2022-12-23T06:13:33.797Z,100769.86
2022-12-23T06:16:00.525Z,100774.48
2022-12-23T06:18:27.350Z,100771.74
2022-12-23T06:20:53.973Z,100771.98
2022-12-23T06:23:20.643Z,100773.73
2022-12-23T06:25:47.280Z,100774.86
2022-12-23T06:28:14.094Z,100779.53
2022-12-23T06:30:40.854Z,100782.82
2022-12-23T06:33:07.533Z,100785.12
2022-12-23T06:35:34.254Z,100785.33
2022-12-23T06:38:00.997Z,100796.40
2022-12-23T06:40:29.366Z,100800.05
2022-12-23T06:42:56.132Z,100800.41
2022-12-23T06:45:23.014Z,100803.00
2022-12-23T06:47:49.615Z,100807.61
2022-12-23T06:50:16.364Z,100812.22
2022-12-23T06:52:43.059Z,100811.52
2022-12-23T06:55:09.783Z,100812.27
2022-12-23T06:57:36.711Z,100809.70
2022-12-23T07:00:08.281Z,100808.20
2022-12-23T07:02:35.139Z,100805.36
2022-12-23T07:05:02.170Z,100819.85
2022-12-23T07:07:29.086Z,100830.60
2022-12-23T07:09:55.960Z,100819.63
2022-12-23T07:12:22.611Z,100816.64
2022-12-23T07:14:49.431Z,100819.65
2022-12-23T07:17:16.269Z,100829.23
2022-12-23T07:19:43.070Z,100818.59
2022-12-23T07:22:12.665Z,100820.79
2022-12-23T07:24:39.388Z,100811.86
2022-12-23T07:27:06.203Z,100821.48
2022-12-23T07:29:32.800Z,100824.76
2022-12-23T07:32:01.881Z,100820.85
2022-12-23T07:34:28.713Z,100826.41
2022-12-23T07:36:55.967Z,100817.02
2022-12-23T07:39:23.128Z,100814.69
2022-12-23T07:41:59.017Z,100810.52
2022-12-23T07:44:36.017Z,100810.00
2022-12-23T07:47:03.312Z,100807.77
2022-12-23T07:49:29.961Z,100799.81
2022-12-23T07:51:56.648Z,100798.61
2022-12-23T07:54:23.503Z,100812.93
2022-12-23T07:56:50.194Z,100817.84
2022-12-23T07:59:16.987Z,100815.64
2022-12-23T08:01:44.212Z,100816.77
2022-12-23T08:04:11.105Z,100812.30
2022-12-23T08:06:37.799Z,100812.67
2022-12-23T08:09:06.523Z,100817.48
2022-12-23T08:11:33.371Z,100820.06
2022-12-23T08:14:00.045Z,100819.36
2022-12-23T08:16:26.993Z,100820.05
2022-12-23T08:18:53.605Z,100824.05
2022-12-23T08:21:20.496Z,100827.42
2022-12-23T08:23:48.305Z,100829.38
2022-12-23T08:26:18.912Z,100827.17
2022-12-23T08:28:46.238Z,100824.91
2022-12-23T08:31:14.775Z,100835.70
2022-12-23T08:33:43.975Z,100837.36
2022-12-23T08:36:19.251Z,100842.88
2022-12-23T08:38:50.292Z,100842.16
2022-12-23T08:41:20.746Z,100833.98
2022-12-23T08:43:48.146Z,100832.84
2022-12-23T08:46:14.975Z,100827.82
2022-12-23T08:48:48.672Z,100820.23
2022-12-23T08:51:18.398Z,100824.06
2022-12-23T08:53:45.700Z,100828.91
2022-12-23T08:56:19.331Z,100827.76
2022-12-23T08:58:47.965Z,100820.45
2022-12-23T09:01:17.221Z,100817.66
2022-12-23T09:03:44.801Z,100827.14
2022-12-23T09:06:18.863Z,100825.55
2022-12-23T09:08:48.322Z,100821.23
2022-12-23T09:11:18.349Z,100817.67
2022-12-23T09:13:45.846Z,100827.16
2022-12-23T09:16:12.693Z,100829.52
2022-12-23T09:18:40.058Z,100833.07
2022-12-23T09:21:11.082Z,100829.91
2022-12-23T09:23:37.701Z,100836.48
2022-12-23T09:26:05.380Z,100832.38
2022-12-23T09:28:32.084Z,100839.86
2022-12-23T09:30:58.779Z,100847.36
2022-12-23T09:33:25.480Z,100844.63
2022-12-23T09:35:52.162Z,100851.00
2022-12-23T09:38:18.806Z,100849.20
2022-12-23T09:40:45.835Z,100847.63
2022-12-23T09:43:15.519Z,100847.52
2022-12-23T09:45:48.357Z,100838.98
2022-12-23T09:48:20.333Z,100829.30
2022-12-23T09:50:47.339Z,100822.64
2022-12-23T09:53:41.562Z,100825.93
2022-12-23T09:56:31.226Z,100834.39
2022-12-23T09:59:35.915Z,100842.81
2022-12-23T10:02:16.080Z,100847.03
2022-12-23T10:05:17.048Z,100850.68
2022-12-23T10:07:52.468Z,100849.02
2022-12-23T10:10:34.236Z,100852.88
2022-12-23T10:13:03.779Z,100853.64
2022-12-23T10:15:45.398Z,100851.74
2022-12-23T10:18:49.147Z,100860.59
2022-12-23T10:21:28.973Z,100855.09
2022-12-23T10:23:55.949Z,100844.27
2022-12-23T10:26:32.309Z,100842.92
2022-12-23T10:29:19.244Z,100839.70
2022-12-23T10:32:00.880Z,100842.45
2022-12-23T10:34:38.690Z,100834.21
2022-12-23T10:37:35.827Z,100827.96
2022-12-23T10:40:21.639Z,100819.48
2022-12-23T10:43:08.406Z,100815.92
2022-12-23T10:45:47.498Z,100815.98
2022-12-23T10:48:26.287Z,100821.98
2022-12-23T10:51:03.182Z,100826.23
2022-12-23T10:53:32.547Z,100816.77
2022-12-23T10:56:00.204Z,100814.05
2022-12-23T10:58:27.180Z,100814.33
2022-12-23T11:00:59.992Z,100803.83
2022-12-23T11:03:42.773Z,100792.77
2022-12-23T11:06:11.451Z,100796.90
2022-12-23T11:08:39.980Z,100800.94
2022-12-23T11:11:07.452Z,100800.29
2022-12-23T11:13:40.693Z,100801.41
2022-12-23T11:16:18.764Z,100802.13
2022-12-23T11:19:00.229Z,100805.98
2022-12-23T11:21:28.400Z,100806.27
2022-12-23T11:24:06.989Z,100805.19
2022-12-23T11:26:34.329Z,100802.89
2022-12-23T11:29:12.077Z,100801.98
2022-12-23T11:31:39.593Z,100800.27
2022-12-23T11:34:14.223Z,100803.30
2022-12-23T11:36:41.789Z,100799.33
2022-12-23T11:39:14.230Z,100798.48
2022-12-23T11:41:44.776Z,100793.42
2022-12-23T11:44:14.480Z,100772.79
2022-12-23T11:46:41.218Z,100769.64
2022-12-23T11:49:15.314Z,100769.56
2022-12-23T11:51:47.581Z,100768.54
2022-12-23T11:54:20.870Z,100756.96
2022-12-23T11:56:53.425Z,100760.81
2022-12-23T11:59:40.058Z,100765.23
2022-12-23T12:02:16.297Z,100756.52
2022-12-23T12:04:43.133Z,100746.40
2022-12-23T12:07:14.533Z,100740.98
2022-12-23T12:09:43.640Z,100738.71
2022-12-23T12:12:19.788Z,100738.41
2022-12-23T12:14:52.977Z,100739.84
2022-12-23T12:17:24.558Z,100732.69
2022-12-23T12:20:04.820Z,100716.41
2022-12-23T12:22:56.578Z,100701.82
2022-12-23T12:25:42.425Z,100715.91
2022-12-23T12:28:20.244Z,100722.09
2022-12-23T12:31:04.082Z,100723.55
2022-12-23T12:33:36.055Z,100718.66
2022-12-23T12:36:09.540Z,100724.52
2022-12-23T12:38:38.601Z,100732.55
2022-12-23T12:41:15.925Z,100726.15
2022-12-23T12:44:14.641Z,100733.30
2022-12-23T12:46:47.726Z,100732.40
2022-12-23T12:49:20.598Z,100728.90
2022-12-23T12:52:13.847Z,100722.99
2022-12-23T12:54:59.396Z,100723.73
2022-12-23T12:57:26.839Z,100718.11
2022-12-23T13:00:05.189Z,100712.27
2022-12-23T13:02:48.921Z,100701.21
2022-12-23T13:05:18.537Z,100686.17
2022-12-23T13:07:54.190Z,100674.48
2022-12-23T13:11:24.934Z,100694.14
2022-12-23T13:13:59.439Z,100693.14
2022-12-23T13:16:39.892Z,100687.30
2022-12-23T13:19:18.750Z,100675.39
2022-12-23T13:22:00.454Z,100689.13
2022-12-23T13:24:38.053Z,100700.42
2022-12-23T13:27:30.620Z,100699.20
2022-12-23T13:30:14.066Z,100705.39
2022-12-23T13:32:52.843Z,100705.56
2022-12-23T13:36:04.654Z,100708.69
2022-12-23T13:38:44.394Z,100731.64
2022-12-23T13:41:29.742Z,100730.55
2022-12-23T13:44:00.225Z,100731.83
2022-12-23T13:46:57.652Z,100724.98
2022-12-23T13:50:15.753Z,100727.35
2022-12-23T13:53:20.538Z,100730.00
2022-12-23T13:56:14.772Z,100738.02
2022-12-23T13:58:42.652Z,100742.95
2022-12-23T14:01:09.287Z,100743.34
2022-12-23T14:03:39.697Z,100734.73
2022-12-23T14:06:25.062Z,100737.69
2022-12-23T14:08:53.729Z,100732.48
2022-12-23T14:11:28.623Z,100725.95
2022-12-23T14:13:55.331Z,100726.63
2022-12-23T14:16:46.695Z,100732.71
2022-12-23T14:19:28.523Z,100733.31
2022-12-23T14:22:25.906Z,100743.90
2022-12-23T14:25:35.967Z,100741.38
2022-12-23T14:28:31.605Z,100741.96
2022-12-23T14:30:58.710Z,100744.06
2022-12-23T14:33:34.357Z,100739.33
2022-12-23T14:36:23.334Z,100742.02
2022-12-23T14:39:11.962Z,100741.14
2022-12-23T14:41:52.689Z,100747.71
2022-12-23T14:44:39.344Z,100744.33
2022-12-23T14:47:28.827Z,100751.17
2022-12-23T14:49:55.491Z,100750.83
2022-12-23T14:52:48.811Z,100744.69
2022-12-23T14:55:42.588Z,100744.30
2022-12-23T14:58:13.681Z,100754.26
2022-12-23T15:00:47.155Z,100755.40
2022-12-23T15:03:14.423Z,100754.52
2022-12-23T15:05:41.091Z,100750.95
2022-12-23T15:08:39.240Z,100753.19
2022-12-23T15:11:09.384Z,100749.40
2022-12-23T15:13:37.292Z,100738.55
2022-12-23T15:16:04.095Z,100736.94
2022-12-23T15:18:30.905Z,100735.39
2022-12-23T15:21:02.797Z,100733.05
2022-12-23T15:23:30.010Z,100733.34
2022-12-23T15:26:01.595Z,100724.52
2022-12-23T15:28:37.800Z,100710.90
2022-12-23T15:31:06.781Z,100706.25
2022-12-23T15:36:36.906Z,100714.96
2022-12-23T15:39:15.692Z,100724.52
2022-12-23T15:41:44.003Z,100717.70
2022-12-23T15:44:15.807Z,100715.14
2022-12-23T15:46:42.853Z,100714.22
2022-12-23T15:49:11.965Z,100703.46
2022-12-23T15:52:13.782Z,100704.27
2022-12-23T15:55:10.702Z,100699.45
2022-12-23T15:57:49.574Z,100703.69
2022-12-23T16:00:20.344Z,100717.15
2022-12-23T16:03:00.241Z,100725.67
2022-12-23T16:05:32.557Z,100737.96
2022-12-23T16:08:28.657Z,100730.23
2022-12-23T16:11:19.410Z,100732.13
2022-12-23T16:13:58.657Z,100737.14
2022-12-23T16:16:33.077Z,100745.70
2022-12-23T16:19:00.124Z,100754.39
2022-12-23T16:21:33.762Z,100746.58
2022-12-23T16:24:01.898Z,100749.67
2022-12-23T16:26:28.701Z,100755.52
2022-12-23T16:28:59.763Z,100759.05
2022-12-23T16:31:26.689Z,100751.98
2022-12-23T16:33:56.401Z,100757.27
2022-12-23T16:36:26.060Z,100757.38
2022-12-23T16:39:14.096Z,100764.10
2022-12-23T16:41:40.815Z,100764.83
2022-12-23T16:44:07.555Z,100773.80
2022-12-23T16:46:39.475Z,100770.91
2022-12-23T16:49:11.161Z,100770.02
2022-12-23T16:51:39.674Z,100759.90
2022-12-23T16:54:06.446Z,100764.27
2022-12-23T16:56:37.747Z,100771.69
2022-12-23T16:59:05.135Z,100771.70
2022-12-23T17:01:35.190Z,100766.13
2022-12-23T17:04:01.988Z,100771.20
2022-12-23T17:06:29.039Z,100775.84
2022-12-23T17:08:57.018Z,100773.50
2022-12-23T17:11:29.160Z,100771.13
2022-12-23T17:14:01.599Z,100765.56
2022-12-23T17:16:30.844Z,100766.16
2022-12-23T17:18:58.748Z,100757.94
2022-12-23T17:21:36.716Z,100749.73
2022-12-23T17:24:13.013Z,100753.63
2022-12-23T17:26:40.199Z,100753.73
2022-12-23T17:29:07.221Z,100758.62
2022-12-23T17:31:34.885Z,100758.41
2022-12-23T17:34:02.285Z,100758.75
2022-12-23T17:36:29.502Z,100753.59
2022-12-23T17:38:56.225Z,100758.85
2022-12-23T17:41:29.570Z,100761.94
2022-12-23T17:43:56.956Z,100768.95
2022-12-23T17:46:24.881Z,100776.10
2022-12-23T17:48:52.036Z,100772.13
2022-12-23T17:51:22.745Z,100762.92
2022-12-23T17:53:55.279Z,100769.52
2022-12-23T17:56:25.123Z,100783.02
2022-12-23T17:58:51.834Z,100789.20
2022-12-23T18:01:27.609Z,100802.98
2022-12-23T18:03:56.009Z,100805.10
2022-12-23T18:06:24.717Z,100798.23
2022-12-23T18:08:51.503Z,100789.73
2022-12-23T18:11:36.406Z,100795.33
2022-12-23T18:14:03.804Z,100797.39
2022-12-23T18:16:31.049Z,100790.05
2022-12-23T18:18:57.893Z,100789.55
2022-12-23T18:21:27.070Z,100801.98
2022-12-23T18:23:57.248Z,100801.58
2022-12-23T18:26:24.021Z,100795.20
2022-12-23T18:28:51.421Z,100790.49
2022-12-23T18:31:24.466Z,100782.35
2022-12-23T18:33:51.463Z,100793.16
2022-12-23T18:36:27.471Z,100789.29
2022-12-23T18:38:55.092Z,100778.03
2022-12-23T18:41:22.140Z,100781.77
2022-12-23T18:43:49.576Z,100779.59
2022-12-23T18:46:17.014Z,100767.76
2022-12-23T18:48:43.708Z,100771.10
2022-12-23T18:51:14.770Z,100774.45
2022-12-23T18:53:43.543Z,100754.23
2022-12-23T18:56:20.206Z,100748.48
2022-12-23T18:58:47.530Z,100758.57
2022-12-23T19:01:15.993Z,100769.94
2022-12-23T19:03:43.597Z,100772.75
2022-12-23T19:06:14.364Z,100763.67
2022-12-23T19:08:42.176Z,100749.45
2022-12-23T19:11:17.862Z,100742.44
2022-12-23T19:13:45.282Z,100747.23
2022-12-23T19:16:20.602Z,100742.84
2022-12-23T19:18:49.311Z,100718.69
2022-12-23T19:21:17.914Z,100710.92
2022-12-23T19:23:45.286Z,100712.83
2022-12-23T19:26:13.992Z,100718.54
2022-12-23T19:28:41.754Z,100728.81
2022-12-23T19:31:10.368Z,100729.98
2022-12-23T19:33:39.091Z,100744.71
2022-12-23T19:36:09.893Z,100769.42
2022-12-23T19:38:37.019Z,100776.73
2022-12-23T19:41:03.902Z,100774.75
2022-12-23T19:43:30.514Z,100778.58
2022-12-23T19:46:02.424Z,100778.02
2022-12-23T19:48:30.038Z,100775.93
2022-12-23T19:50:59.073Z,100786.09
2022-12-23T19:53:26.973Z,100799.09
2022-12-23T19:56:01.920Z,100789.80
2022-12-23T19:58:32.193Z,100793.89
2022-12-23T20:01:26.521Z,100798.99
2022-12-23T20:03:55.766Z,100796.77
2022-12-23T20:06:26.175Z,100794.73
2022-12-23T20:08:59.761Z,100776.67
2022-12-23T20:11:30.543Z,100759.63
2022-12-23T20:13:58.474Z,100764.09
2022-12-23T20:16:26.057Z,100765.50
2022-12-23T20:18:53.198Z,100762.16
2022-12-23T20:21:20.431Z,100782.45
2022-12-23T20:23:47.997Z,100784.00
2022-12-23T20:26:16.417Z,100774.19
2022-12-23T20:28:43.635Z,100769.13
2022-12-23T20:31:22.646Z,100762.81
2022-12-23T20:33:51.349Z,100764.35
2022-12-23T20:36:20.995Z,100774.61
2022-12-23T20:38:48.334Z,100782.04
2022-12-23T20:41:19.207Z,100794.48
2022-12-23T20:44:02.737Z,100796.48
2022-12-23T20:46:33.068Z,100795.11
2022-12-23T20:49:00.575Z,100784.74
2022-12-23T20:51:27.688Z,100784.83
2022-12-23T20:53:59.996Z,100787.73
2022-12-23T20:56:27.843Z,100787.71
2022-12-23T20:58:55.606Z,100793.36
2022-12-23T21:01:25.070Z,100793.59
2022-12-23T21:03:52.360Z,100787.23
2022-12-23T21:06:19.848Z,100780.38
2022-12-23T21:08:46.840Z,100784.83
2022-12-23T21:11:13.763Z,100782.11
2022-12-23T21:13:40.573Z,100784.33
2022-12-23T21:16:11.910Z,100784.23
2022-12-23T21:18:44.121Z,100779.48
2022-12-23T21:21:11.969Z,100774.30
2022-12-23T21:23:59.698Z,100774.67
2022-12-23T21:26:28.878Z,100768.70
2022-12-23T21:29:01.295Z,100746.62
2022-12-23T21:31:30.643Z,100761.94
2022-12-23T21:33:58.311Z,100775.59
2022-12-23T21:36:28.032Z,100779.33
2022-12-23T21:38:55.080Z,100791.90
2022-12-23T21:41:25.212Z,100787.19
2022-12-23T21:43:52.165Z,100765.30
2022-12-23T21:46:21.523Z,100775.77
2022-12-23T21:48:49.286Z,100787.02
2022-12-23T21:51:17.583Z,100802.77
2022-12-23T21:53:46.229Z,100823.14
2022-12-23T21:56:16.078Z,100831.77
2022-12-23T21:58:43.542Z,100833.25
2022-12-23T22:01:11.903Z,100833.16
2022-12-23T22:03:39.024Z,100840.10
2022-12-23T22:06:17.194Z,100837.58
2022-12-23T22:08:43.811Z,100841.00
2022-12-23T22:11:16.724Z,100839.44
2022-12-23T22:13:44.247Z,100834.00
2022-12-23T22:16:17.366Z,100829.26
2022-12-23T22:18:44.615Z,100820.59
2022-12-23T22:21:14.053Z,100812.42
2022-12-23T22:23:41.098Z,100804.52
2022-12-23T22:26:08.654Z,100786.58
2022-12-23T22:28:37.241Z,100765.55
2022-12-23T22:31:07.109Z,100769.09
2022-12-23T22:33:34.858Z,100780.48
2022-12-23T22:36:01.546Z,100774.54
2022-12-23T22:38:28.302Z,100767.34
2022-12-23T22:40:55.052Z,100761.36
2022-12-23T22:43:21.773Z,100763.31
2022-12-23T22:45:56.181Z,100753.90
2022-12-23T22:48:23.846Z,100736.14
2022-12-23T22:50:51.311Z,100732.27
2022-12-23T22:53:17.979Z,100725.86
2022-12-23T22:55:44.614Z,100719.20
2022-12-23T22:58:11.420Z,100714.67
2022-12-23T23:00:38.188Z,100721.48
2022-12-23T23:03:04.900Z,100712.36
2022-12-23T23:05:31.584Z,100707.36
2022-12-23T23:07:58.627Z,100708.17
2022-12-23T23:10:25.369Z,100718.15
2022-12-23T23:12:52.088Z,100724.77
2022-12-23T23:15:18.885Z,100729.24
2022-12-23T23:17:45.505Z,100738.40
2022-12-23T23:20:12.171Z,100744.58
2022-12-23T23:22:38.903Z,100766.20
2022-12-23T23:25:06.027Z,100771.84
2022-12-23T23:27:32.747Z,100769.09
2022-12-23T23:29:59.407Z,100759.77
2022-12-23T23:32:26.190Z,100739.77
2022-12-23T23:34:52.886Z,100734.13
2022-12-23T23:37:19.592Z,100743.44
2022-12-23T23:39:46.255Z,100729.24
2022-12-23T23:42:13.178Z,100708.50
2022-12-23T23:44:39.835Z,100707.62
2022-12-23T23:47:06.561Z,100729.31
2022-12-23T23:49:33.246Z,100730.44
2022-12-23T23:51:59.901Z,100729.88
2022-12-23T23:54:26.658Z,100747.65
2022-12-23T23:56:53.474Z,100753.17
2022-12-23T23:59:20.158Z,100753.47
